Archival Weather

Republic

Farmingdale, New York (KFRG)

Report from: Wednesday, February 7, 2024 2:53 PM EST
Current time: Friday, June 14, 2024 9:03 AM EDT

Current weather – Weather history – Daily summaries
Weather forecast

Temperature8.9°C (48.0°F)
Wind chill7.5°C (45.4°F)
Dew point-4.4°C (24.1°F)
Winds 5 kts (2.6 m/s, 5.8 mph) Vrb
Wind gusts 18 kts (9.3 m/s, 20.7 mph)
Winds variableWinds variable
Visibility10 mi. (16.1 km)
Clouds Sky clear
Altimeter30.25 in.Hg (1024 mB)
Relative humidity39 %
Density altitude-1,036 ft. (-316 m)
Sea-level pressure102.4 kPa (1024 mB, 30.25 in.Hg)
Remarks Automated weather observing station without precipitation discriminator
Flight conditions Visual Meteorological Conditions
Raw dataKFRG 071953Z VRB05G18KT 10SM CLR 09/M04 A3025 RMK AO1 SLP244 T00891044
An error has occurred. This application may no longer respond until reloaded. Reload 🗙